sensor_id;sensor_type;location;lat;lon;timestamp;pressure;altitude;pressure_sealevel;temperature;humidity
12664;BME280;6396;58.490;15.528;2023-02-02T00:00:01;99510.63;;;1.55;100.00
12664;BME280;6396;58.490;15.528;2023-02-02T00:02:28;99621.59;;;1.55;100.00
12664;BME280;6396;58.490;15.528;2023-02-02T00:05:00;99518.47;;;1.52;100.00
12664;BME280;6396;58.490;15.528;2023-02-02T00:07:37;99049.00;;;-1.62;100.00
12664;BME280;6396;58.490;15.528;2023-02-02T00:10:05;98942.44;;;-2.79;100.00
12664;BME280;6396;58.490;15.528;2023-02-02T00:12:32;99305.72;;;-0.14;100.00
12664;BME280;6396;58.490;15.528;2023-02-02T00:15:00;99266.19;;;-0.69;100.00
12664;BME280;6396;58.490;15.528;2023-02-02T00:17:27;99404.88;;;0.44;100.00
12664;BME280;6396;58.490;15.528;2023-02-02T00:19:53;99280.72;;;-0.35;100.00
12664;BME280;6396;58.490;15.528;2023-02-02T00:22:20;99071.38;;;-1.40;100.00
12664;BME280;6396;58.490;15.528;2023-02-02T00:24:47;99407.47;;;0.41;100.00
12664;BME280;6396;58.490;15.528;2023-02-02T00:27:16;99223.81;;;-0.59;100.00
12664;BME280;6396;58.490;15.528;2023-02-02T00:29:43;99665.97;;;1.22;100.00
12664;BME280;6396;58.490;15.528;2023-02-02T00:32:12;99340.44;;;-0.62;100.00
12664;BME280;6396;58.490;15.528;2023-02-02T00:34:38;99447.31;;;0.37;100.00
12664;BME280;6396;58.490;15.528;2023-02-02T00:37:05;99508.59;;;0.65;100.00
12664;BME280;6396;58.490;15.528;2023-02-02T00:39:32;99571.56;;;1.12;100.00
12664;BME280;6396;58.490;15.528;2023-02-02T00:41:59;99413.63;;;0.19;100.00
12664;BME280;6396;58.490;15.528;2023-02-02T00:44:25;99424.88;;;0.19;100.00
12664;BME280;6396;58.490;15.528;2023-02-02T00:47:11;99600.16;;;1.12;100.00
12664;BME280;6396;58.490;15.528;2023-02-02T00:49:38;99608.84;;;1.11;100.00
12664;BME280;6396;58.490;15.528;2023-02-02T00:52:05;99697.22;;;1.08;100.00
12664;BME280;6396;58.490;15.528;2023-02-02T00:54:31;99622.75;;;0.99;100.00
12664;BME280;6396;58.490;15.528;2023-02-02T00:56:58;99327.53;;;-0.83;100.00
12664;BME280;6396;58.490;15.528;2023-02-02T00:59:25;99341.31;;;-0.69;100.00
12664;BME280;6396;58.490;15.528;2023-02-02T01:01:52;99590.00;;;0.61;100.00
12664;BME280;6396;58.490;15.528;2023-02-02T01:04:20;99307.72;;;-1.68;100.00
12664;BME280;6396;58.490;15.528;2023-02-02T01:06:47;99525.22;;;0.11;100.00
12664;BME280;6396;58.490;15.528;2023-02-02T01:09:13;99477.66;;;0.08;100.00
12664;BME280;6396;58.490;15.528;2023-02-02T01:11:40;99490.69;;;0.00;100.00
12664;BME280;6396;58.490;15.528;2023-02-02T01:14:07;99598.69;;;0.43;100.00
12664;BME280;6396;58.490;15.528;2023-02-02T01:16:34;99590.00;;;0.52;100.00
12664;BME280;6396;58.490;15.528;2023-02-02T01:19:01;99561.47;;;0.35;100.00
12664;BME280;6396;58.490;15.528;2023-02-02T01:21:29;99338.78;;;-1.22;100.00
12664;BME280;6396;58.490;15.528;2023-02-02T01:23:56;99587.47;;;0.14;100.00
12664;BME280;6396;58.490;15.528;2023-02-02T01:26:23;99655.81;;;0.31;100.00
12664;BME280;6396;58.490;15.528;2023-02-02T01:28:50;99356.03;;;-1.07;100.00
12664;BME280;6396;58.490;15.528;2023-02-02T01:31:18;98704.91;;;-5.05;100.00
12664;BME280;6396;58.490;15.528;2023-02-02T01:33:47;99673.03;;;0.76;100.00
12664;BME280;6396;58.490;15.528;2023-02-02T01:36:16;99305.13;;;-1.41;100.00
12664;BME280;6396;58.490;15.528;2023-02-02T01:38:44;98804.69;;;-4.33;100.00
12664;BME280;6396;58.490;15.528;2023-02-02T01:41:13;99526.13;;;-0.20;100.00
12664;BME280;6396;58.490;15.528;2023-02-02T01:43:50;99187.75;;;-2.50;100.00
12664;BME280;6396;58.490;15.528;2023-02-02T01:46:21;99297.28;;;-1.95;100.00
12664;BME280;6396;58.490;15.528;2023-02-02T01:48:52;99259.41;;;-1.87;100.00
12664;BME280;6396;58.490;15.528;2023-02-02T01:51:21;99489.84;;;-0.83;100.00
12664;BME280;6396;58.490;15.528;2023-02-02T01:53:52;99589.22;;;-0.05;100.00
12664;BME280;6396;58.490;15.528;2023-02-02T01:56:24;98863.84;;;-4.48;100.00
12664;BME280;6396;58.490;15.528;2023-02-02T01:58:52;99717.22;;;0.31;100.00
12664;BME280;6396;58.490;15.528;2023-02-02T02:01:19;99758.75;;;0.56;100.00
12664;BME280;6396;58.490;15.528;2023-02-02T02:03:46;99576.25;;;-0.38;100.00
12664;BME280;6396;58.490;15.528;2023-02-02T02:06:15;99179.97;;;-2.65;100.00
12664;BME280;6396;58.490;15.528;2023-02-02T02:08:46;99340.41;;;-1.90;100.00
12664;BME280;6396;58.490;15.528;2023-02-02T02:11:18;99575.34;;;-0.88;100.00
12664;BME280;6396;58.490;15.528;2023-02-02T02:13:45;99808.09;;;0.46;100.00
12664;BME280;6396;58.490;15.528;2023-02-02T02:16:39;99802.03;;;0.51;100.00
12664;BME280;6396;58.490;15.528;2023-02-02T02:19:25;99363.56;;;-2.18;100.00
12664;BME280;6396;58.490;15.528;2023-02-02T02:21:58;99696.34;;;-0.42;100.00
12664;BME280;6396;58.490;15.528;2023-02-02T02:25:15;99784.75;;;0.47;100.00
12664;BME280;6396;58.490;15.528;2023-02-02T02:28:28;99756.97;;;0.07;100.00
12664;BME280;6396;58.490;15.528;2023-02-02T02:31:18;99701.63;;;-0.03;100.00
12664;BME280;6396;58.490;15.528;2023-02-02T02:33:56;99097.72;;;-3.85;100.00
12664;BME280;6396;58.490;15.528;2023-02-02T02:36:33;99487.19;;;-1.27;100.00
12664;BME280;6396;58.490;15.528;2023-02-02T02:39:10;99671.31;;;-0.41;100.00
12664;BME280;6396;58.490;15.528;2023-02-02T02:41:42;99838.38;;;0.39;100.00
12664;BME280;6396;58.490;15.528;2023-02-02T02:44:13;99673.91;;;-0.37;100.00
12664;BME280;6396;58.490;15.528;2023-02-02T02:46:42;99688.56;;;-0.57;100.00
12664;BME280;6396;58.490;15.528;2023-02-02T02:49:12;99809.78;;;0.29;100.00
12664;BME280;6396;58.490;15.528;2023-02-02T02:51:42;99536.28;;;-1.45;100.00
12664;BME280;6396;58.490;15.528;2023-02-02T02:54:09;99851.28;;;0.14;100.00
12664;BME280;6396;58.490;15.528;2023-02-02T02:56:43;99819.31;;;0.24;100.00
12664;BME280;6396;58.490;15.528;2023-02-02T02:59:19;99766.50;;;-0.03;100.00
12664;BME280;6396;58.490;15.528;2023-02-02T03:01:54;99744.69;;;-0.60;100.00
12664;BME280;6396;58.490;15.528;2023-02-02T03:04:34;99846.16;;;0.33;100.00
12664;BME280;6396;58.490;15.528;2023-02-02T03:07:07;99600.03;;;-1.62;100.00
12664;BME280;6396;58.490;15.528;2023-02-02T03:09:40;99892.84;;;0.23;100.00
12664;BME280;6396;58.490;15.528;2023-02-02T03:12:07;99821.69;;;-0.40;100.00
12664;BME280;6396;58.490;15.528;2023-02-02T03:14:34;99500.72;;;-1.87;100.00
12664;BME280;6396;58.490;15.528;2023-02-02T03:17:01;99493.75;;;-2.03;100.00
12664;BME280;6396;58.490;15.528;2023-02-02T03:19:30;99450.47;;;-2.42;100.00
12664;BME280;6396;58.490;15.528;2023-02-02T03:21:57;99870.22;;;-0.12;100.00
12664;BME280;6396;58.490;15.528;2023-02-02T03:24:23;99855.59;;;0.09;100.00
12664;BME280;6396;58.490;15.528;2023-02-02T03:26:50;99091.13;;;-4.60;100.00
12664;BME280;6396;58.490;15.528;2023-02-02T03:29:17;99847.66;;;-0.28;100.00
12664;BME280;6396;58.490;15.528;2023-02-02T03:31:45;99791.34;;;-0.56;100.00
12664;BME280;6396;58.490;15.528;2023-02-02T03:34:12;99661.38;;;-1.42;100.00
12664;BME280;6396;58.490;15.528;2023-02-02T03:36:40;99390.53;;;-3.11;100.00
12664;BME280;6396;58.490;15.528;2023-02-02T03:39:07;99554.41;;;-2.70;100.00
12664;BME280;6396;58.490;15.528;2023-02-02T03:41:34;99719.38;;;-1.14;100.00
12664;BME280;6396;58.490;15.528;2023-02-02T03:44:00;99563.38;;;-2.26;100.00
12664;BME280;6396;58.490;15.528;2023-02-02T03:46:27;99460.56;;;-2.73;100.00
12664;BME280;6396;58.490;15.528;2023-02-02T03:48:54;99375.63;;;-3.45;100.00
12664;BME280;6396;58.490;15.528;2023-02-02T03:51:21;99483.72;;;-2.84;100.00
12664;BME280;6396;58.490;15.528;2023-02-02T03:53:49;99994.63;;;-0.24;100.00
12664;BME280;6396;58.490;15.528;2023-02-02T03:56:16;99595.25;;;-2.27;100.00
12664;BME280;6396;58.490;15.528;2023-02-02T03:58:43;99815.28;;;-1.03;100.00
12664;BME280;6396;58.490;15.528;2023-02-02T04:01:12;99861.16;;;-0.83;100.00
12664;BME280;6396;58.490;15.528;2023-02-02T04:03:38;99677.28;;;-2.07;100.00
12664;BME280;6396;58.490;15.528;2023-02-02T04:06:05;99462.66;;;-3.27;100.00
12664;BME280;6396;58.490;15.528;2023-02-02T04:08:32;99700.44;;;-2.19;100.00
12664;BME280;6396;58.490;15.528;2023-02-02T04:11:01;99675.41;;;-2.23;100.00
12664;BME280;6396;58.490;15.528;2023-02-02T04:13:28;99668.44;;;-2.31;100.00
12664;BME280;6396;58.490;15.528;2023-02-02T04:15:56;99535.47;;;-3.48;100.00
12664;BME280;6396;58.490;15.528;2023-02-02T04:18:23;99719.66;;;-1.92;100.00
12664;BME280;6396;58.490;15.528;2023-02-02T04:20:55;99867.63;;;-1.35;100.00
12664;BME280;6396;58.490;15.528;2023-02-02T04:23:21;99873.69;;;-1.34;100.00
12664;BME280;6396;58.490;15.528;2023-02-02T04:25:49;99856.44;;;-1.35;100.00
12664;BME280;6396;58.490;15.528;2023-02-02T04:28:17;100036.75;;;-0.52;100.00
12664;BME280;6396;58.490;15.528;2023-02-02T04:30:44;99950.78;;;-1.03;100.00
12664;BME280;6396;58.490;15.528;2023-02-02T04:33:11;100034.19;;;-0.50;100.00
12664;BME280;6396;58.490;15.528;2023-02-02T04:35:37;99910.91;;;-1.23;100.00
12664;BME280;6396;58.490;15.528;2023-02-02T04:38:04;100030.69;;;-0.55;100.00
12664;BME280;6396;58.490;15.528;2023-02-02T04:40:31;99903.94;;;-1.32;100.00
12664;BME280;6396;58.490;15.528;2023-02-02T04:42:58;99740.22;;;-2.80;100.00
12664;BME280;6396;58.490;15.528;2023-02-02T04:45:26;99965.44;;;-1.06;100.00
12664;BME280;6396;58.490;15.528;2023-02-02T04:47:53;100091.88;;;-0.68;100.00
12664;BME280;6396;58.490;15.528;2023-02-02T04:50:20;99532.81;;;-3.57;100.00
12664;BME280;6396;58.490;15.528;2023-02-02T04:52:46;100052.28;;;-0.58;100.00
12664;BME280;6396;58.490;15.528;2023-02-02T04:55:13;100067.78;;;-0.61;100.00
12664;BME280;6396;58.490;15.528;2023-02-02T04:57:40;100083.38;;;-0.58;100.00
12664;BME280;6396;58.490;15.528;2023-02-02T05:00:08;100073.53;;;-0.87;100.00
12664;BME280;6396;58.490;15.528;2023-02-02T05:02:38;99946.78;;;-1.56;100.00
12664;BME280;6396;58.490;15.528;2023-02-02T05:05:07;100076.34;;;-0.69;100.00
12664;BME280;6396;58.490;15.528;2023-02-02T05:07:35;100093.47;;;-0.82;100.00
12664;BME280;6396;58.490;15.528;2023-02-02T05:10:02;99407.47;;;-4.79;100.00
12664;BME280;6396;58.490;15.528;2023-02-02T05:12:29;99957.72;;;-1.80;100.00
12664;BME280;6396;58.490;15.528;2023-02-02T05:14:56;99732.25;;;-2.97;100.00
12664;BME280;6396;58.490;15.528;2023-02-02T05:17:25;100001.88;;;-1.66;100.00
12664;BME280;6396;58.490;15.528;2023-02-02T05:19:53;99853.59;;;-2.36;100.00
12664;BME280;6396;58.490;15.528;2023-02-02T05:22:20;100106.03;;;-1.17;100.00
12664;BME280;6396;58.490;15.528;2023-02-02T05:24:47;99600.25;;;-3.88;100.00
12664;BME280;6396;58.490;15.528;2023-02-02T05:27:14;99348.09;;;-5.97;100.00
12664;BME280;6396;58.490;15.528;2023-02-02T05:29:40;99939.31;;;-2.04;100.00
12664;BME280;6396;58.490;15.528;2023-02-02T05:32:07;100027.00;;;-1.56;100.00
12664;BME280;6396;58.490;15.528;2023-02-02T05:34:34;100059.78;;;-1.55;100.00
12664;BME280;6396;58.490;15.528;2023-02-02T05:37:02;99692.31;;;-3.81;100.00
12664;BME280;6396;58.490;15.528;2023-02-02T05:39:29;99820.59;;;-3.68;100.00
12664;BME280;6396;58.490;15.528;2023-02-02T05:41:55;99940.13;;;-2.68;100.00
12664;BME280;6396;58.490;15.528;2023-02-02T05:44:22;100235.75;;;-1.00;100.00
12664;BME280;6396;58.490;15.528;2023-02-02T05:46:49;100229.56;;;-1.08;100.00
12664;BME280;6396;58.490;15.528;2023-02-02T05:49:16;100054.00;;;-2.00;100.00
12664;BME280;6396;58.490;15.528;2023-02-02T05:51:45;100309.66;;;-1.20;100.00
12664;BME280;6396;58.490;15.528;2023-02-02T05:54:14;100107.31;;;-2.08;100.00
12664;BME280;6396;58.490;15.528;2023-02-02T05:56:44;99654.81;;;-4.64;100.00
12664;BME280;6396;58.490;15.528;2023-02-02T05:59:11;100222.38;;;-1.27;100.00
12664;BME280;6396;58.490;15.528;2023-02-02T06:01:38;100236.22;;;-1.27;100.00
12664;BME280;6396;58.490;15.528;2023-02-02T06:04:05;100076.19;;;-2.14;100.00
12664;BME280;6396;58.490;15.528;2023-02-02T06:06:32;100074.31;;;-2.24;100.00
12664;BME280;6396;58.490;15.528;2023-02-02T06:08:59;100273.22;;;-1.34;100.00
12664;BME280;6396;58.490;15.528;2023-02-02T06:11:28;100243.81;;;-1.37;100.00
12664;BME280;6396;58.490;15.528;2023-02-02T06:13:55;99951.44;;;-3.12;100.00
12664;BME280;6396;58.490;15.528;2023-02-02T06:16:22;99863.16;;;-3.90;100.00
12664;BME280;6396;58.490;15.528;2023-02-02T06:18:50;99948.50;;;-3.30;100.00
12664;BME280;6396;58.490;15.528;2023-02-02T06:21:17;100246.28;;;-1.45;100.00
12664;BME280;6396;58.490;15.528;2023-02-02T06:23:47;99838.66;;;-4.13;100.00
12664;BME280;6396;58.490;15.528;2023-02-02T06:26:14;100202.63;;;-1.77;100.00
12664;BME280;6396;58.490;15.528;2023-02-02T06:28:47;99824.41;;;-3.94;100.00
12664;BME280;6396;58.490;15.528;2023-02-02T06:31:14;100143.03;;;-2.36;100.00
12664;BME280;6396;58.490;15.528;2023-02-02T06:33:43;100310.06;;;-1.48;100.00
12664;BME280;6396;58.490;15.528;2023-02-02T06:36:10;100273.78;;;-1.51;100.00
12664;BME280;6396;58.490;15.528;2023-02-02T06:38:37;100282.38;;;-1.52;100.00
12664;BME280;6396;58.490;15.528;2023-02-02T06:41:04;100079.69;;;-3.08;100.00
12664;BME280;6396;58.490;15.528;2023-02-02T06:43:31;100292.69;;;-1.55;100.00
12664;BME280;6396;58.490;15.528;2023-02-02T06:46:00;100300.38;;;-1.61;100.00
12664;BME280;6396;58.490;15.528;2023-02-02T06:48:26;100215.91;;;-2.08;100.00
12664;BME280;6396;58.490;15.528;2023-02-02T06:50:56;100153.91;;;-2.52;100.00
12664;BME280;6396;58.490;15.528;2023-02-02T06:53:23;100359.66;;;-1.73;100.00
12664;BME280;6396;58.490;15.528;2023-02-02T06:55:54;100354.38;;;-1.79;100.00
12664;BME280;6396;58.490;15.528;2023-02-02T06:58:21;100323.38;;;-1.76;100.00
12664;BME280;6396;58.490;15.528;2023-02-02T07:00:48;100315.56;;;-2.24;100.00
12664;BME280;6396;58.490;15.528;2023-02-02T07:03:17;100331.66;;;-1.94;100.00
12664;BME280;6396;58.490;15.528;2023-02-02T07:05:45;100177.34;;;-2.87;100.00
12664;BME280;6396;58.490;15.528;2023-02-02T07:08:12;100361.94;;;-1.88;100.00
12664;BME280;6396;58.490;15.528;2023-02-02T07:10:40;100261.66;;;-2.48;100.00
12664;BME280;6396;58.490;15.528;2023-02-02T07:13:07;100373.78;;;-1.99;100.00
12664;BME280;6396;58.490;15.528;2023-02-02T07:15:37;100182.84;;;-3.12;100.00
12664;BME280;6396;58.490;15.528;2023-02-02T07:18:04;100276.25;;;-2.91;100.00
12664;BME280;6396;58.490;15.528;2023-02-02T07:20:34;100009.53;;;-4.14;100.00
12664;BME280;6396;58.490;15.528;2023-02-02T07:23:01;100363.19;;;-2.11;100.00
12664;BME280;6396;58.490;15.528;2023-02-02T07:25:29;100399.41;;;-2.11;100.00
12664;BME280;6396;58.490;15.528;2023-02-02T07:27:56;100283.53;;;-3.11;100.00
12664;BME280;6396;58.490;15.528;2023-02-02T07:30:22;100296.63;;;-2.65;100.00
12664;BME280;6396;58.490;15.528;2023-02-02T07:32:50;100262.16;;;-3.05;100.00
12664;BME280;6396;58.490;15.528;2023-02-02T07:35:16;100244.28;;;-2.96;100.00
12664;BME280;6396;58.490;15.528;2023-02-02T07:37:50;100436.47;;;-2.11;100.00
12664;BME280;6396;58.490;15.528;2023-02-02T07:40:17;100318.34;;;-2.55;100.00
12664;BME280;6396;58.490;15.528;2023-02-02T07:42:45;100365.69;;;-2.58;100.00
12664;BME280;6396;58.490;15.528;2023-02-02T07:45:11;100445.16;;;-2.09;100.00
12664;BME280;6396;58.490;15.528;2023-02-02T07:47:38;100394.72;;;-2.29;100.00
12664;BME280;6396;58.490;15.528;2023-02-02T07:50:06;100443.50;;;-2.05;100.00
12664;BME280;6396;58.490;15.528;2023-02-02T07:52:32;100337.75;;;-2.74;100.00
12664;BME280;6396;58.490;15.528;2023-02-02T07:55:01;100129.16;;;-3.67;100.00
12664;BME280;6396;58.490;15.528;2023-02-02T07:57:27;100429.81;;;-2.01;100.00
12664;BME280;6396;58.490;15.528;2023-02-02T07:59:54;100311.97;;;-2.71;100.00
12664;BME280;6396;58.490;15.528;2023-02-02T08:02:21;100430.84;;;-1.92;100.00
12664;BME280;6396;58.490;15.528;2023-02-02T08:04:48;100442.63;;;-2.06;100.00
12664;BME280;6396;58.490;15.528;2023-02-02T08:07:15;100443.31;;;-2.13;100.00
12664;BME280;6396;58.490;15.528;2023-02-02T08:09:51;99740.19;;;-6.32;100.00
12664;BME280;6396;58.490;15.528;2023-02-02T08:12:20;100008.63;;;-5.21;100.00
12664;BME280;6396;58.490;15.528;2023-02-02T08:14:48;99901.97;;;-5.35;100.00
12664;BME280;6396;58.490;15.528;2023-02-02T08:17:15;99944.53;;;-5.12;100.00
12664;BME280;6396;58.490;15.528;2023-02-02T08:19:43;100256.28;;;-3.73;100.00
12664;BME280;6396;58.490;15.528;2023-02-02T08:22:09;100148.19;;;-4.66;100.00
12664;BME280;6396;58.490;15.528;2023-02-02T08:24:36;100550.91;;;-2.19;100.00
12664;BME280;6396;58.490;15.528;2023-02-02T08:27:06;100502.91;;;-2.08;100.00
12664;BME280;6396;58.490;15.528;2023-02-02T08:29:35;100506.50;;;-2.02;100.00
12664;BME280;6396;58.490;15.528;2023-02-02T08:32:03;100517.56;;;-2.07;100.00
12664;BME280;6396;58.490;15.528;2023-02-02T08:34:30;100544.91;;;-1.80;100.00
12664;BME280;6396;58.490;15.528;2023-02-02T08:36:59;100539.13;;;-1.70;100.00
12664;BME280;6396;58.490;15.528;2023-02-02T08:39:26;100177.84;;;-3.81;100.00
12664;BME280;6396;58.490;15.528;2023-02-02T08:41:53;100491.75;;;-2.06;100.00
12664;BME280;6396;58.490;15.528;2023-02-02T08:44:20;100586.75;;;-1.60;100.00
12664;BME280;6396;58.490;15.528;2023-02-02T08:46:49;100486.88;;;-1.92;100.00
12664;BME280;6396;58.490;15.528;2023-02-02T08:49:16;100486.00;;;-1.94;100.00
12664;BME280;6396;58.490;15.528;2023-02-02T08:51:43;100535.00;;;-1.99;100.00
12664;BME280;6396;58.490;15.528;2023-02-02T08:54:10;100291.56;;;-2.99;100.00
12664;BME280;6396;58.490;15.528;2023-02-02T08:56:37;100589.88;;;-1.36;100.00
12664;BME280;6396;58.490;15.528;2023-02-02T08:59:04;100571.94;;;-1.27;100.00
12664;BME280;6396;58.490;15.528;2023-02-02T09:01:32;99927.44;;;-5.10;100.00
12664;BME280;6396;58.490;15.528;2023-02-02T09:04:02;100325.50;;;-2.82;100.00
12664;BME280;6396;58.490;15.528;2023-02-02T09:06:31;99857.44;;;-5.33;100.00
12664;BME280;6396;58.490;15.528;2023-02-02T09:08:58;100677.53;;;-1.14;100.00
12664;BME280;6396;58.490;15.528;2023-02-02T09:11:25;100508.94;;;-1.69;100.00
12664;BME280;6396;58.490;15.528;2023-02-02T09:13:54;100118.88;;;-4.04;100.00
12664;BME280;6396;58.490;15.528;2023-02-02T09:16:24;100593.91;;;-1.08;100.00
12664;BME280;6396;58.490;15.528;2023-02-02T09:18:51;100622.69;;;-0.95;100.00
12664;BME280;6396;58.490;15.528;2023-02-02T09:21:19;100602.34;;;-0.74;100.00
12664;BME280;6396;58.490;15.528;2023-02-02T09:23:48;100591.63;;;-0.92;100.00
12664;BME280;6396;58.490;15.528;2023-02-02T09:26:16;100558.97;;;-1.27;100.00
12664;BME280;6396;58.490;15.528;2023-02-02T09:28:46;100603.50;;;-0.60;100.00
12664;BME280;6396;58.490;15.528;2023-02-02T09:31:13;100104.56;;;-3.53;100.00
12664;BME280;6396;58.490;15.528;2023-02-02T09:33:41;99741.03;;;-5.26;100.00
12664;BME280;6396;58.490;15.528;2023-02-02T09:36:09;100365.63;;;-1.76;100.00
12664;BME280;6396;58.490;15.528;2023-02-02T09:38:38;100608.97;;;0.09;100.00
12664;BME280;6396;58.490;15.528;2023-02-02T09:41:33;100407.34;;;-1.13;100.00
12664;BME280;6396;58.490;15.528;2023-02-02T09:44:09;99777.34;;;-4.30;100.00
12664;BME280;6396;58.490;15.528;2023-02-02T09:46:46;100343.91;;;-1.38;100.00
12664;BME280;6396;58.490;15.528;2023-02-02T09:49:20;100366.22;;;-0.93;100.00
12664;BME280;6396;58.490;15.528;2023-02-02T09:51:55;100290.81;;;-2.11;100.00
12664;BME280;6396;58.490;15.528;2023-02-02T09:54:27;100227.38;;;-1.39;100.00
12664;BME280;6396;58.490;15.528;2023-02-02T09:56:59;100448.78;;;-0.61;100.00
12664;BME280;6396;58.490;15.528;2023-02-02T09:59:32;100695.56;;;0.66;100.00
12664;BME280;6396;58.490;15.528;2023-02-02T10:02:04;100124.75;;;-2.46;100.00
12664;BME280;6396;58.490;15.528;2023-02-02T10:04:34;100651.59;;;0.25;100.00
12664;BME280;6396;58.490;15.528;2023-02-02T10:07:06;100437.16;;;-0.84;100.00
12664;BME280;6396;58.490;15.528;2023-02-02T10:09:39;100350.88;;;-1.34;100.00
12664;BME280;6396;58.490;15.528;2023-02-02T10:12:20;100688.44;;;0.56;100.00
12664;BME280;6396;58.490;15.528;2023-02-02T10:14:53;100670.69;;;0.85;100.00
12664;BME280;6396;58.490;15.528;2023-02-02T10:17:37;100530.31;;;0.13;100.00
12664;BME280;6396;58.490;15.528;2023-02-02T10:20:21;100422.88;;;0.02;100.00
12664;BME280;6396;58.490;15.528;2023-02-02T10:22:54;100693.69;;;1.21;100.00
12664;BME280;6396;58.490;15.528;2023-02-02T10:25:26;100593.84;;;0.38;100.00
12664;BME280;6396;58.490;15.528;2023-02-02T10:28:00;100031.53;;;-2.58;100.00
12664;BME280;6396;58.490;15.528;2023-02-02T10:30:36;100782.72;;;1.67;100.00
12664;BME280;6396;58.490;15.528;2023-02-02T10:33:14;100208.06;;;-1.04;100.00
12664;BME280;6396;58.490;15.528;2023-02-02T10:35:50;99879.16;;;-3.12;100.00
12664;BME280;6396;58.490;15.528;2023-02-02T10:38:26;99872.25;;;-3.13;100.00
12664;BME280;6396;58.490;15.528;2023-02-02T10:41:08;100249.75;;;-1.44;100.00
12664;BME280;6396;58.490;15.528;2023-02-02T10:43:56;100730.72;;;1.72;100.00
12664;BME280;6396;58.490;15.528;2023-02-02T10:46:30;99807.81;;;-3.62;100.00
12664;BME280;6396;58.490;15.528;2023-02-02T10:49:13;100489.97;;;0.36;100.00
12664;BME280;6396;58.490;15.528;2023-02-02T10:51:49;100328.22;;;-0.32;100.00
12664;BME280;6396;58.490;15.528;2023-02-02T10:54:33;99869.19;;;-2.91;100.00
12664;BME280;6396;58.490;15.528;2023-02-02T10:57:09;99862.81;;;-3.12;100.00
12664;BME280;6396;58.490;15.528;2023-02-02T10:59:43;100151.94;;;-1.03;100.00
12664;BME280;6396;58.490;15.528;2023-02-02T11:02:25;99941.81;;;-2.68;100.00
12664;BME280;6396;58.490;15.528;2023-02-02T11:04:57;100768.63;;;2.26;100.00
12664;BME280;6396;58.490;15.528;2023-02-02T11:07:46;99859.13;;;-3.26;100.00
12664;BME280;6396;58.490;15.528;2023-02-02T11:10:21;99869.56;;;-2.64;100.00
12664;BME280;6396;58.490;15.528;2023-02-02T11:12:57;99863.69;;;-3.12;100.00
12664;BME280;6396;58.490;15.528;2023-02-02T11:15:27;99913.31;;;-2.74;100.00
12664;BME280;6396;58.490;15.528;2023-02-02T11:18:13;99827.50;;;-3.15;100.00
12664;BME280;6396;58.490;15.528;2023-02-02T11:20:43;99921.66;;;-2.34;100.00
12664;BME280;6396;58.490;15.528;2023-02-02T11:23:22;99999.50;;;-2.14;100.00
12664;BME280;6396;58.490;15.528;2023-02-02T11:26:02;100712.69;;;2.95;100.00
12664;BME280;6396;58.490;15.528;2023-02-02T11:28:38;99887.88;;;-2.49;100.00
12664;BME280;6396;58.490;15.528;2023-02-02T11:31:08;100721.47;;;3.12;100.00
12664;BME280;6396;58.490;15.528;2023-02-02T11:33:38;99968.50;;;-1.44;100.00
12664;BME280;6396;58.490;15.528;2023-02-02T11:36:18;99776.31;;;-2.83;100.00
12664;BME280;6396;58.490;15.528;2023-02-02T11:38:46;100008.59;;;-1.07;100.00
12664;BME280;6396;58.490;15.528;2023-02-02T11:41:31;99950.69;;;-1.90;100.00
12664;BME280;6396;58.490;15.528;2023-02-02T11:44:19;99935.47;;;-1.64;100.00
12664;BME280;6396;58.490;15.528;2023-02-02T11:46:52;100215.09;;;0.84;100.00
12664;BME280;6396;58.490;15.528;2023-02-02T11:49:25;100717.44;;;3.88;100.00
12664;BME280;6396;58.490;15.528;2023-02-02T11:51:58;99966.03;;;-0.34;100.00
12664;BME280;6396;58.490;15.528;2023-02-02T11:54:31;100046.44;;;-0.30;100.00
12664;BME280;6396;58.490;15.528;2023-02-02T11:57:01;100280.31;;;1.22;100.00
12664;BME280;6396;58.490;15.528;2023-02-02T11:59:36;100333.22;;;1.24;100.00
12664;BME280;6396;58.490;15.528;2023-02-02T12:02:24;99968.44;;;-0.60;100.00
12664;BME280;6396;58.490;15.528;2023-02-02T12:04:53;100000.44;;;-0.58;100.00
12664;BME280;6396;58.490;15.528;2023-02-02T12:07:26;100025.50;;;-0.55;100.00
12664;BME280;6396;58.490;15.528;2023-02-02T12:09:59;100788.94;;;4.32;100.00
12664;BME280;6396;58.490;15.528;2023-02-02T12:12:39;99831.84;;;-0.77;100.00
12664;BME280;6396;58.490;15.528;2023-02-02T12:15:24;100016.22;;;-0.26;100.00
12664;BME280;6396;58.490;15.528;2023-02-02T12:18:03;99950.41;;;-0.42;100.00
12664;BME280;6396;58.490;15.528;2023-02-02T12:20:39;100079.78;;;0.35;100.00
12664;BME280;6396;58.490;15.528;2023-02-02T12:23:23;100368.59;;;1.08;100.00
12664;BME280;6396;58.490;15.528;2023-02-02T12:26:11;100235.19;;;1.14;100.00
12664;BME280;6396;58.490;15.528;2023-02-02T12:29:13;100004.50;;;-0.84;100.00
12664;BME280;6396;58.490;15.528;2023-02-02T12:53:32;100609.34;;;3.18;100.00
12664;BME280;6396;58.490;15.528;2023-02-02T12:56:14;100465.66;;;2.31;100.00
12664;BME280;6396;58.490;15.528;2023-02-02T12:58:52;100483.69;;;1.97;100.00
12664;BME280;6396;58.490;15.528;2023-02-02T13:01:38;100744.16;;;3.29;100.00
12664;BME280;6396;58.490;15.528;2023-02-02T13:04:27;100850.50;;;3.65;100.00
12664;BME280;6396;58.490;15.528;2023-02-02T13:07:19;100700.38;;;2.73;100.00
12664;BME280;6396;58.490;15.528;2023-02-02T13:10:03;100472.13;;;1.58;100.00
12664;BME280;6396;58.490;15.528;2023-02-02T13:12:35;100745.00;;;3.21;100.00
12664;BME280;6396;58.490;15.528;2023-02-02T13:15:06;100794.69;;;3.42;100.00
12664;BME280;6396;58.490;15.528;2023-02-02T13:17:39;100532.03;;;1.62;100.00
12664;BME280;6396;58.490;15.528;2023-02-02T13:20:17;100810.22;;;3.22;100.00
12664;BME280;6396;58.490;15.528;2023-02-02T13:22:48;100804.16;;;3.23;100.00
12664;BME280;6396;58.490;15.528;2023-02-02T13:25:25;100733.31;;;2.62;100.00
12664;BME280;6396;58.490;15.528;2023-02-02T13:27:54;100591.09;;;1.74;100.00